createdAt,value
2022-11-23T00:00:36.049Z,51.81
2022-11-23T00:03:45.964Z,51.96
2022-11-23T00:06:51.994Z,51.52
2022-11-23T00:09:58.793Z,51.37
2022-11-23T00:13:04.767Z,51.62
2022-11-23T00:16:16.045Z,53.56
2022-11-23T00:19:24.845Z,55.22
2022-11-23T00:22:31.532Z,54.46
2022-11-23T00:25:38.448Z,54.96
2022-11-23T00:28:45.241Z,54.26
2022-11-23T00:31:51.099Z,53.96
2022-11-23T00:35:00.364Z,55.11
2022-11-23T00:38:06.316Z,55.93
2022-11-23T00:41:16.109Z,55.01
2022-11-23T00:44:21.978Z,54.16
2022-11-23T00:47:30.194Z,53.72
2022-11-23T00:50:39.049Z,55.19
2022-11-23T00:53:47.004Z,55.33
2022-11-23T00:56:52.857Z,55.50
2022-11-23T00:59:59.925Z,58.85
2022-11-23T01:03:05.773Z,56.81
2022-11-23T01:06:18.557Z,57.40
2022-11-23T01:09:26.899Z,62.85
2022-11-23T01:12:33.676Z,64.49
2022-11-23T01:15:39.509Z,60.12
2022-11-23T01:18:46.214Z,60.41
2022-11-23T01:21:54.665Z,57.35
2022-11-23T01:25:04.263Z,50.50
2022-11-23T01:28:10.123Z,51.48
2022-11-23T01:31:20.460Z,50.45
2022-11-23T01:34:26.377Z,50.73
2022-11-23T01:37:35.577Z,51.15
2022-11-23T01:40:46.299Z,51.39
2022-11-23T01:43:54.189Z,51.20
2022-11-23T01:47:03.350Z,51.39
2022-11-23T01:50:11.187Z,52.48
2022-11-23T01:53:21.912Z,51.67
2022-11-23T01:56:38.428Z,51.43
2022-11-23T01:59:44.532Z,52.43
2022-11-23T02:03:00.639Z,52.97
2022-11-23T02:06:18.440Z,53.27
2022-11-23T02:09:28.545Z,53.28
2022-11-23T02:12:36.575Z,52.43
2022-11-23T02:15:44.965Z,53.81
2022-11-23T02:18:56.697Z,56.07
2022-11-23T02:22:03.579Z,54.28
2022-11-23T02:25:24.176Z,54.42
2022-11-23T02:28:42.948Z,53.19
2022-11-23T02:31:48.989Z,53.32
2022-11-23T02:34:55.715Z,53.32
2022-11-23T02:38:05.556Z,54.23
2022-11-23T02:41:12.299Z,54.06
2022-11-23T02:44:37.442Z,54.16
2022-11-23T02:47:46.018Z,55.75
2022-11-23T02:50:52.096Z,54.86
2022-11-23T02:53:58.715Z,54.78
2022-11-23T02:57:05.580Z,55.24
2022-11-23T03:00:18.027Z,54.70
2022-11-23T03:03:23.960Z,54.60
2022-11-23T03:06:30.647Z,53.98
2022-11-23T03:09:37.152Z,53.44
2022-11-23T03:12:43.851Z,53.56
2022-11-23T03:15:58.812Z,54.02
2022-11-23T03:19:07.073Z,53.68
2022-11-23T03:22:13.185Z,55.09
2022-11-23T03:25:20.220Z,52.79
2022-11-23T03:28:30.742Z,53.43
2022-11-23T03:31:40.225Z,51.01
2022-11-23T03:34:50.067Z,49.95
2022-11-23T03:37:58.950Z,51.14
2022-11-23T03:41:05.093Z,52.09
2022-11-23T03:44:26.136Z,52.96
2022-11-23T03:47:35.476Z,54.05
2022-11-23T03:50:42.374Z,54.71
2022-11-23T03:53:48.592Z,53.60
2022-11-23T03:56:55.519Z,54.70
2022-11-23T04:00:01.643Z,56.16
2022-11-23T04:03:11.402Z,55.29
2022-11-23T04:06:44.640Z,53.01
2022-11-23T04:09:58.110Z,49.75
2022-11-23T04:13:22.513Z,52.91
2022-11-23T04:16:29.587Z,54.67
2022-11-23T04:19:38.489Z,53.10
2022-11-23T04:22:45.719Z,54.29
2022-11-23T04:25:52.525Z,53.25
2022-11-23T04:28:59.881Z,53.06
2022-11-23T04:32:05.953Z,55.41
2022-11-23T04:35:16.248Z,54.61
2022-11-23T04:38:25.001Z,53.53
2022-11-23T04:41:32.205Z,51.35
2022-11-23T04:44:38.858Z,49.48
2022-11-23T04:47:47.061Z,49.47
2022-11-23T04:50:57.471Z,51.60
2022-11-23T04:54:11.407Z,50.83
2022-11-23T04:57:25.763Z,52.40
2022-11-23T05:00:32.853Z,52.02
2022-11-23T05:03:41.108Z,53.29
2022-11-23T05:06:51.466Z,52.89
2022-11-23T05:09:57.544Z,50.51
2022-11-23T05:13:05.871Z,47.83
2022-11-23T05:16:11.899Z,47.99
2022-11-23T05:19:19.669Z,45.31
2022-11-23T05:22:28.294Z,45.22
2022-11-23T05:25:35.429Z,44.89
2022-11-23T05:28:43.611Z,45.31
2022-11-23T05:31:53.646Z,44.89
2022-11-23T05:34:59.913Z,45.87
2022-11-23T05:38:12.239Z,47.16
2022-11-23T05:41:18.519Z,48.87
2022-11-23T05:44:26.292Z,49.15
2022-11-23T05:47:32.608Z,50.15
2022-11-23T05:50:39.924Z,51.79
2022-11-23T05:54:10.087Z,53.42
2022-11-23T05:57:25.391Z,53.41
2022-11-23T06:00:31.572Z,53.76
2022-11-23T06:03:43.779Z,54.02
2022-11-23T06:06:49.731Z,54.17
2022-11-23T06:09:59.066Z,56.11
2022-11-23T06:13:07.458Z,57.59
2022-11-23T06:16:14.978Z,65.99
2022-11-23T06:19:32.352Z,67.14
2022-11-23T06:22:39.198Z,64.29
2022-11-23T06:25:49.863Z,61.96
2022-11-23T06:29:02.643Z,62.33
2022-11-23T06:32:09.035Z,59.67
2022-11-23T06:35:16.862Z,60.54
2022-11-23T06:38:23.682Z,61.88
2022-11-23T06:41:41.095Z,66.43
2022-11-23T06:44:47.080Z,56.83
2022-11-23T06:47:58.304Z,54.15
2022-11-23T06:51:05.088Z,49.74
2022-11-23T06:54:12.780Z,46.83
2022-11-23T06:57:22.910Z,45.44
2022-11-23T07:00:30.099Z,45.21
2022-11-23T07:03:36.599Z,48.73
2022-11-23T07:06:51.848Z,47.93
2022-11-23T07:10:16.798Z,51.74
2022-11-23T07:13:28.540Z,54.03
2022-11-23T07:16:34.447Z,56.93
2022-11-23T07:19:55.421Z,53.81
2022-11-23T07:23:16.467Z,51.86
2022-11-23T07:26:37.546Z,52.37
2022-11-23T07:30:01.151Z,58.60
2022-11-23T07:33:22.385Z,65.98
2022-11-23T07:36:44.446Z,68.69
2022-11-23T07:40:05.736Z,60.19
2022-11-23T07:43:28.190Z,55.79
2022-11-23T07:46:51.884Z,56.82
2022-11-23T07:50:16.060Z,63.60
2022-11-23T07:53:23.979Z,71.95
2022-11-23T07:56:29.877Z,67.88
2022-11-23T07:59:36.619Z,61.47
2022-11-23T08:03:11.344Z,52.40
2022-11-23T08:06:13.110Z,57.29
2022-11-23T08:09:19.014Z,45.75
2022-11-23T08:12:25.822Z,45.17
2022-11-23T08:15:31.823Z,51.86
2022-11-23T08:18:41.159Z,51.80
2022-11-23T08:21:47.599Z,56.35
2022-11-23T08:24:54.285Z,56.65
2022-11-23T08:28:02.195Z,56.84
2022-11-23T08:31:11.534Z,53.07
2022-11-23T08:34:20.540Z,48.31
2022-11-23T08:37:27.342Z,48.73
2022-11-23T08:40:33.564Z,46.22
2022-11-23T08:43:40.493Z,43.84
2022-11-23T08:46:46.345Z,44.10
2022-11-23T08:49:55.649Z,43.55
2022-11-23T08:53:03.356Z,44.70
2022-11-23T08:56:11.645Z,47.48
2022-11-23T08:59:17.742Z,51.66
2022-11-23T09:02:24.458Z,54.01
2022-11-23T09:05:33.773Z,53.31
2022-11-23T09:08:41.311Z,51.46
2022-11-23T09:11:47.487Z,49.59
2022-11-23T09:14:54.090Z,49.96
2022-11-23T09:18:00.258Z,50.43
2022-11-23T09:21:10.161Z,46.85
2022-11-23T09:24:17.269Z,44.90
2022-11-23T09:27:24.822Z,46.70
2022-11-23T09:30:31.290Z,48.36
2022-11-23T09:33:38.038Z,46.21
2022-11-23T09:36:46.559Z,44.68
2022-11-23T09:39:53.223Z,45.18
2022-11-23T09:43:27.545Z,45.10
2022-11-23T09:46:59.196Z,44.09
2022-11-23T09:50:18.003Z,46.10
2022-11-23T09:53:38.532Z,47.23
2022-11-23T09:56:49.580Z,48.01
2022-11-23T10:00:04.989Z,48.45
2022-11-23T10:03:19.922Z,47.82
2022-11-23T10:06:31.518Z,45.12
2022-11-23T10:09:58.755Z,46.32
2022-11-23T10:13:30.148Z,48.28
2022-11-23T10:16:52.453Z,49.49
2022-11-23T10:20:25.539Z,52.75
2022-11-23T10:23:55.719Z,48.51
2022-11-23T10:27:14.220Z,57.53
2022-11-23T10:30:23.418Z,53.11
2022-11-23T10:33:43.289Z,45.39
2022-11-23T10:36:49.181Z,48.99
2022-11-23T10:39:55.833Z,52.91
2022-11-23T10:43:14.653Z,52.70
2022-11-23T10:46:41.847Z,53.38
2022-11-23T10:50:01.851Z,51.09
2022-11-23T10:53:28.761Z,49.79
2022-11-23T10:56:37.247Z,50.49
2022-11-23T10:59:46.575Z,44.77
2022-11-23T11:02:55.317Z,41.61
2022-11-23T11:06:11.538Z,41.32
2022-11-23T11:09:24.871Z,37.57
2022-11-23T11:12:36.865Z,40.98
2022-11-23T11:15:56.702Z,38.54
2022-11-23T11:19:25.182Z,36.57
2022-11-23T11:22:41.083Z,39.66
2022-11-23T11:26:04.950Z,36.90
2022-11-23T11:29:33.938Z,41.47
2022-11-23T11:33:05.692Z,41.14
2022-11-23T11:36:19.404Z,41.00
2022-11-23T11:39:35.850Z,37.15
2022-11-23T11:42:49.948Z,34.20
2022-11-23T11:49:39.379Z,31.72
2022-11-23T11:52:54.016Z,33.00
2022-11-23T11:56:10.320Z,32.88
2022-11-23T11:59:28.176Z,34.03
2022-11-23T12:02:46.050Z,34.10
2022-11-23T12:06:04.591Z,32.97
2022-11-23T12:09:21.733Z,34.14
2022-11-23T12:12:29.872Z,33.90
2022-11-23T12:15:49.793Z,33.99
2022-11-23T12:19:18.059Z,39.17
2022-11-23T12:22:54.455Z,37.23
2022-11-23T12:26:29.524Z,39.51
2022-11-23T12:30:03.325Z,35.45
2022-11-23T12:33:47.693Z,34.28
2022-11-23T12:37:20.582Z,33.98
2022-11-23T12:46:14.424Z,41.33
2022-11-23T12:49:41.601Z,37.75
2022-11-23T12:53:07.648Z,36.99
2022-11-23T12:56:46.376Z,36.98
2022-11-23T13:00:03.350Z,35.35
2022-11-23T13:04:13.584Z,34.29
2022-11-23T13:07:54.606Z,34.96
2022-11-23T13:11:37.697Z,37.11
2022-11-23T13:15:06.235Z,36.06
2022-11-23T13:18:33.037Z,31.81
2022-11-23T13:21:43.621Z,33.56
2022-11-23T13:25:17.784Z,33.79
2022-11-23T13:28:34.567Z,34.92
2022-11-23T13:31:41.386Z,37.00
2022-11-23T13:34:51.295Z,39.72
2022-11-23T13:38:41.517Z,39.83
2022-11-23T13:42:04.397Z,35.84
2022-11-23T13:45:36.964Z,37.00
2022-11-23T13:48:56.825Z,38.41
2022-11-23T13:52:22.692Z,41.55
2022-11-23T13:55:39.470Z,36.42
2022-11-23T13:58:56.657Z,36.13
2022-11-23T14:02:31.640Z,33.08
2022-11-23T14:06:01.991Z,34.98
2022-11-23T14:09:22.396Z,36.00
2022-11-23T14:12:42.704Z,35.13
2022-11-23T14:16:01.224Z,34.55
2022-11-23T14:19:33.728Z,33.58
2022-11-23T14:23:05.007Z,35.15
2022-11-23T14:26:36.590Z,37.43
2022-11-23T14:30:16.610Z,41.76
2022-11-23T14:33:40.991Z,51.27
2022-11-23T14:37:04.941Z,38.39
2022-11-23T14:40:30.244Z,35.34
2022-11-23T14:43:40.147Z,34.67
2022-11-23T14:47:05.450Z,39.36
2022-11-23T14:50:26.041Z,41.77
2022-11-23T14:53:47.024Z,42.27
2022-11-23T14:57:00.759Z,38.71
2022-11-23T15:00:11.940Z,40.18
2022-11-23T15:06:57.122Z,43.30
2022-11-23T15:10:23.575Z,38.90
2022-11-23T15:13:33.519Z,40.78
2022-11-23T15:16:43.735Z,39.54
2022-11-23T15:20:01.339Z,44.64
2022-11-23T15:23:08.839Z,45.17
2022-11-23T15:26:46.137Z,45.09
2022-11-23T15:29:57.772Z,45.67
2022-11-23T15:33:12.016Z,57.00
2022-11-23T15:36:25.433Z,74.81
2022-11-23T15:39:32.905Z,58.57
2022-11-23T15:42:41.934Z,48.13
2022-11-23T15:46:09.245Z,41.25
2022-11-23T15:49:20.775Z,38.44
2022-11-23T15:52:27.656Z,38.91
2022-11-23T15:55:34.307Z,40.43
2022-11-23T15:58:54.920Z,41.79
2022-11-23T16:02:03.349Z,42.70
2022-11-23T16:05:18.834Z,40.67
2022-11-23T16:08:28.888Z,39.74
2022-11-23T16:11:39.590Z,34.77
2022-11-23T16:14:48.173Z,50.30
2022-11-23T16:17:55.089Z,59.01
2022-11-23T16:21:05.858Z,51.30
2022-11-23T16:24:26.165Z,35.17
2022-11-23T16:27:32.381Z,36.62
2022-11-23T16:30:44.536Z,40.56
2022-11-23T16:33:50.476Z,42.35
2022-11-23T16:36:59.438Z,39.65
2022-11-23T16:40:05.361Z,42.89
2022-11-23T16:43:14.535Z,45.83
2022-11-23T16:46:23.616Z,51.77
2022-11-23T16:49:30.508Z,53.78
2022-11-23T16:52:39.559Z,55.22
2022-11-23T16:55:49.102Z,66.62
2022-11-23T16:58:57.648Z,65.66
2022-11-23T17:02:07.115Z,64.66
2022-11-23T17:05:18.361Z,61.26
2022-11-23T17:08:25.449Z,66.14
2022-11-23T17:11:31.726Z,59.61
2022-11-23T17:14:42.887Z,56.24
2022-11-23T17:17:51.780Z,51.72
2022-11-23T17:20:59.337Z,42.32
2022-11-23T17:24:05.906Z,81.58
2022-11-23T17:27:19.447Z,64.76
2022-11-23T17:30:27.611Z,48.82
2022-11-23T17:33:39.043Z,45.49
2022-11-23T17:36:49.779Z,46.77
2022-11-23T17:39:57.104Z,37.31
2022-11-23T17:43:03.359Z,35.71
2022-11-23T17:46:22.576Z,34.86
2022-11-23T17:49:32.731Z,33.10
2022-11-23T17:52:42.330Z,35.30
2022-11-23T17:55:49.082Z,34.44
2022-11-23T17:58:56.758Z,38.01
2022-11-23T18:02:02.666Z,40.73
2022-11-23T18:05:18.000Z,41.52
2022-11-23T18:08:27.293Z,38.16
2022-11-23T18:11:34.421Z,40.21
2022-11-23T18:14:40.962Z,44.79
2022-11-23T18:17:48.162Z,37.97
2022-11-23T18:20:57.235Z,46.99
2022-11-23T18:24:04.842Z,49.44
2022-11-23T18:27:11.186Z,44.40
2022-11-23T18:30:19.825Z,42.86
2022-11-23T18:33:26.698Z,40.66
2022-11-23T18:36:36.936Z,42.25
2022-11-23T18:39:42.916Z,47.57
2022-11-23T18:42:49.765Z,43.37
2022-11-23T18:45:56.373Z,36.94
2022-11-23T18:49:03.169Z,35.03
2022-11-23T18:52:14.055Z,37.69
2022-11-23T18:55:21.034Z,41.28
2022-11-23T18:58:26.981Z,40.36
2022-11-23T19:01:33.847Z,40.49
2022-11-23T19:04:43.379Z,39.22
2022-11-23T19:07:54.672Z,39.23
2022-11-23T19:11:09.886Z,38.21
2022-11-23T19:14:16.979Z,36.32
2022-11-23T19:17:22.925Z,35.36
2022-11-23T19:20:30.724Z,37.77
2022-11-23T19:23:39.411Z,39.55
2022-11-23T19:26:46.444Z,39.53
2022-11-23T19:29:52.974Z,35.48
2022-11-23T19:33:01.586Z,34.67
2022-11-23T19:36:12.585Z,36.66
2022-11-23T19:39:22.730Z,40.48
2022-11-23T19:42:28.861Z,36.58
2022-11-23T19:45:35.665Z,33.56
2022-11-23T19:48:42.668Z,35.01
2022-11-23T19:51:52.476Z,39.24
2022-11-23T19:55:01.310Z,38.84
2022-11-23T19:58:08.528Z,38.86
2022-11-23T20:01:17.460Z,39.97
2022-11-23T20:04:24.278Z,39.33
2022-11-23T20:07:30.265Z,38.54
2022-11-23T20:10:39.774Z,40.57
2022-11-23T20:13:47.362Z,39.65
2022-11-23T20:16:56.285Z,38.86
2022-11-23T20:20:02.442Z,40.65
2022-11-23T20:23:09.494Z,40.14
2022-11-23T20:26:21.675Z,39.16
2022-11-23T20:29:29.627Z,41.51
2022-11-23T20:32:35.728Z,41.89
2022-11-23T20:35:42.677Z,42.67
2022-11-23T20:38:49.119Z,43.17
2022-11-23T20:41:58.930Z,43.90
2022-11-23T20:45:04.911Z,45.27
2022-11-23T20:48:11.634Z,46.96
2022-11-23T20:51:18.786Z,47.01
2022-11-23T20:54:25.663Z,40.72
2022-11-23T20:57:34.240Z,42.96
2022-11-23T21:00:41.234Z,45.55
2022-11-23T21:03:54.560Z,43.44
2022-11-23T21:07:01.455Z,46.46
2022-11-23T21:10:08.701Z,41.48
2022-11-23T21:13:37.211Z,42.67
2022-11-23T21:16:59.012Z,42.02
2022-11-23T21:20:06.078Z,38.19
2022-11-23T21:23:12.302Z,34.95
2022-11-23T21:26:19.379Z,35.69
2022-11-23T21:29:28.555Z,35.22
2022-11-23T21:32:35.603Z,34.05
2022-11-23T21:35:42.137Z,34.99
2022-11-23T21:38:49.447Z,35.23
2022-11-23T21:41:57.287Z,34.83
2022-11-23T21:45:11.584Z,32.39
2022-11-23T21:48:17.389Z,32.36
2022-11-23T21:51:26.943Z,31.25
2022-11-23T21:54:33.112Z,30.57
2022-11-23T21:57:40.124Z,36.14
2022-11-23T22:00:48.869Z,34.39
2022-11-23T22:03:58.994Z,31.76
2022-11-23T22:07:04.892Z,30.05
2022-11-23T22:10:12.802Z,30.37
2022-11-23T22:13:18.821Z,30.66
2022-11-23T22:16:30.928Z,30.69
2022-11-23T22:19:36.874Z,33.16
2022-11-23T22:22:43.830Z,32.26
2022-11-23T22:25:49.865Z,32.70
2022-11-23T22:29:02.647Z,33.43
2022-11-23T22:32:11.422Z,31.53
2022-11-23T22:35:18.328Z,32.85
2022-11-23T22:38:24.323Z,36.14
2022-11-23T22:41:33.654Z,31.68
2022-11-23T22:44:39.765Z,30.47
2022-11-23T22:47:49.081Z,33.13
2022-11-23T22:50:59.331Z,34.78
2022-11-23T22:54:06.762Z,35.14
2022-11-23T22:57:13.116Z,35.87
2022-11-23T23:00:20.389Z,37.93
2022-11-23T23:03:29.010Z,33.79
2022-11-23T23:07:28.087Z,34.53
2022-11-23T23:10:35.030Z,38.30
2022-11-23T23:13:41.318Z,37.25
2022-11-23T23:16:48.088Z,34.57
2022-11-23T23:19:56.580Z,35.24
2022-11-23T23:23:03.391Z,32.60
2022-11-23T23:26:10.187Z,31.79
2022-11-23T23:29:17.017Z,31.97
2022-11-23T23:32:23.103Z,33.21
2022-11-23T23:35:32.503Z,32.61
2022-11-23T23:38:39.794Z,31.01
2022-11-23T23:41:46.619Z,32.09
2022-11-23T23:44:52.619Z,32.30
2022-11-23T23:48:01.014Z,32.47
2022-11-23T23:51:14.040Z,33.46
2022-11-23T23:54:20.792Z,31.59
2022-11-23T23:57:26.742Z,33.05
